Time;durP1;ratioP1;P1;durP2;ratioP2;P2;SDS_P1;SDS_P2;PMS_P1;PMS_P2;Temp;Humidity;BMP_temperature;BMP_pressure;BME280_temperature;BME280_humidity;BME280_pressure;Samples;Min_cycle;Max_cycle;Signal;HPM_P1;HPM_P2
2021/05/24 00:01:01;;;;;;;7.25;4.78;;;;;;;8.77;73.38;100108.22;5116475;28;20123;-52
2021/05/24 00:03:27;;;;;;;11.82;6.65;;;;;;;8.75;73.84;100110.00;5116760;28;20048;-52
2021/05/24 00:05:52;;;;;;;12.18;6.10;;;;;;;8.72;73.97;100115.25;5116779;28;20111;-52
2021/05/24 00:08:18;;;;;;;8.88;5.13;;;;;;;8.70;73.81;100120.50;5116491;28;20347;-52
2021/05/24 00:10:44;;;;;;;8.98;4.63;;;;;;;8.67;74.10;100117.91;5116651;28;20456;-52
2021/05/24 00:13:11;;;;;;;6.85;4.22;;;;;;;8.64;74.00;100118.84;5116677;28;20047;-52
2021/05/24 00:15:39;;;;;;;5.57;3.28;;;;;;;8.62;73.64;100122.34;5116658;28;20059;-51
2021/05/24 00:18:05;;;;;;;7.00;4.43;;;;;;;8.58;73.55;100118.91;5116599;28;20061;-53
2021/05/24 00:20:32;;;;;;;8.50;4.18;;;;;;;8.53;73.60;100112.88;5116370;28;20040;-53
2021/05/24 00:22:58;;;;;;;6.28;3.63;;;;;;;8.50;73.69;100115.50;5116572;28;20047;-52
2021/05/24 00:25:24;;;;;;;8.73;5.43;;;;;;;8.47;73.89;100122.50;5115318;28;20077;-51
2021/05/24 00:27:50;;;;;;;9.70;5.07;;;;;;;8.44;73.78;100120.78;5116710;28;20123;-52
2021/05/24 00:30:16;;;;;;;9.35;5.68;;;;;;;8.42;73.77;100120.81;5116473;28;20353;-51
2021/05/24 00:32:42;;;;;;;10.23;5.95;;;;;;;8.39;73.84;100128.69;5116488;28;20054;-51
2021/05/24 00:35:08;;;;;;;9.55;6.53;;;;;;;8.36;74.01;100123.47;5116157;28;20043;-52
2021/05/24 00:37:34;;;;;;;9.25;5.57;;;;;;;8.32;73.86;100131.34;5116437;28;20047;-52
2021/05/24 00:40:00;;;;;;;9.57;5.82;;;;;;;8.29;74.21;100129.66;5116445;28;20077;-52
2021/05/24 00:42:25;;;;;;;8.45;4.80;;;;;;;8.24;74.55;100121.00;5116090;28;20039;-52
2021/05/24 00:44:51;;;;;;;7.20;4.82;;;;;;;8.24;74.73;100128.81;5115840;28;20040;-51
2021/05/24 00:47:17;;;;;;;10.35;4.65;;;;;;;8.24;74.72;100134.03;5116347;28;20051;-52
2021/05/24 00:49:44;;;;;;;12.57;5.60;;;;;;;8.19;75.65;100123.66;5119371;28;20045;-52
2021/05/24 00:52:11;;;;;;;9.50;5.82;;;;;;;8.20;75.67;100119.28;5119269;28;20353;-52
2021/05/24 00:54:37;;;;;;;9.63;4.35;;;;;;;8.18;76.34;100121.91;5120218;28;20055;-52
2021/05/24 00:57:03;;;;;;;9.80;4.20;;;;;;;8.19;76.08;100120.19;5119274;28;20460;-52
2021/05/24 00:59:29;;;;;;;7.43;4.15;;;;;;;8.17;75.91;100121.94;5120433;27;20094;-52
2021/05/24 01:01:55;;;;;;;7.22;4.97;;;;;;;8.16;75.92;100128.03;5119208;28;20422;-52
2021/05/24 01:04:20;;;;;;;6.60;3.72;;;;;;;8.13;76.14;100131.53;5119588;28;20055;-52
2021/05/24 01:06:47;;;;;;;7.80;4.47;;;;;;;8.14;75.97;100130.66;5119124;28;20047;-53
2021/05/24 01:09:12;;;;;;;6.38;4.15;;;;;;;8.11;75.96;100122.00;5119623;28;20047;-51
2021/05/24 01:11:38;;;;;;;8.52;4.07;;;;;;;8.10;75.88;100131.56;5119509;28;20055;-52
2021/05/24 01:14:04;;;;;;;5.85;4.35;;;;;;;8.08;75.94;100125.50;5119852;28;20056;-52
2021/05/24 01:16:30;;;;;;;5.95;3.60;;;;;;;8.07;75.74;100121.16;5119766;28;20471;-52
2021/05/24 01:18:56;;;;;;;5.32;3.47;;;;;;;8.04;75.93;100123.81;5119754;28;20179;-51
2021/05/24 01:21:22;;;;;;;6.07;3.47;;;;;;;8.03;75.72;100124.69;5119489;28;20327;-51
2021/05/24 01:23:48;;;;;;;5.93;3.40;;;;;;;8.01;75.63;100133.41;5119589;28;20047;-52
2021/05/24 01:26:13;;;;;;;10.00;3.60;;;;;;;7.99;75.51;100135.16;5119432;28;20067;-52
2021/05/24 01:28:42;;;;;;;12.38;5.88;;;;;;;7.95;75.34;100126.50;5119491;28;20082;-51
2021/05/24 01:31:07;;;;;;;10.88;5.28;;;;;;;7.93;75.40;100136.09;5119733;28;20432;-52
2021/05/24 01:33:35;;;;;;;8.70;5.18;;;;;;;7.91;75.39;100137.84;5119244;28;20039;-52
2021/05/24 01:36:01;;;;;;;7.25;4.40;;;;;;;7.87;75.22;100136.16;5119422;28;20054;-52
2021/05/24 01:38:27;;;;;;;8.38;3.72;;;;;;;7.85;75.58;100136.13;5119396;28;20048;-52
2021/05/24 01:40:53;;;;;;;7.97;4.22;;;;;;;7.82;75.73;100122.28;5119313;28;20048;-52
2021/05/24 01:43:19;;;;;;;6.63;3.13;;;;;;;7.80;75.35;100126.63;5118991;28;20055;-52
2021/05/24 01:45:45;;;;;;;10.32;5.40;;;;;;;7.75;75.26;100126.69;5118910;28;20407;-52
2021/05/24 01:48:11;;;;;;;10.13;5.82;;;;;;;7.74;75.55;100130.16;5118010;28;20054;-52
2021/05/24 01:50:38;;;;;;;12.70;6.20;;;;;;;7.72;75.42;100124.09;5119041;28;20043;-53
2021/05/24 01:53:03;;;;;;;10.88;5.90;;;;;;;7.68;75.54;100127.59;5119094;28;20128;-52
2021/05/24 01:55:29;;;;;;;10.30;5.28;;;;;;;7.65;75.56;100127.63;5118799;28;20425;-52
2021/05/24 01:57:55;;;;;;;9.18;5.63;;;;;;;7.63;75.30;100130.22;5118159;28;20070;-51
2021/05/24 02:00:22;;;;;;;9.48;5.25;;;;;;;7.63;75.68;100129.38;5118486;28;20050;-52
2021/05/24 02:02:48;;;;;;;9.82;5.18;;;;;;;7.58;75.32;100119.00;5067595;28;20043;-52
2021/05/24 02:05:14;;;;;;;8.40;5.00;;;;;;;7.56;75.28;100119.88;5118871;28;20066;-52
2021/05/24 02:07:40;;;;;;;8.48;4.25;;;;;;;7.52;75.95;100115.56;5118541;28;20047;-52
2021/05/24 02:10:07;;;;;;;5.95;4.05;;;;;;;7.50;75.76;100113.81;5118190;28;20040;-52
2021/05/24 02:12:33;;;;;;;7.13;3.38;;;;;;;7.48;75.57;100109.53;5118734;28;20043;-52
2021/05/24 02:14:59;;;;;;;8.27;4.30;;;;;;;7.44;75.37;100119.13;5118449;28;20062;-52
2021/05/24 02:17:24;;;;;;;7.22;3.85;;;;;;;7.43;75.47;100119.97;5117447;28;20051;-52
2021/05/24 02:19:52;;;;;;;6.82;4.07;;;;;;;7.39;75.39;100123.47;5118322;28;20072;-53
2021/05/24 02:22:18;;;;;;;7.18;4.15;;;;;;;7.36;75.60;100114.81;5118538;28;20043;-52
2021/05/24 02:24:43;;;;;;;5.82;4.32;;;;;;;7.34;75.59;100109.59;5118330;28;20551;-53
2021/05/24 02:27:09;;;;;;;7.13;4.43;;;;;;;7.31;75.70;100114.84;5118133;28;20437;-52
2021/05/24 02:29:36;;;;;;;6.78;4.20;;;;;;;7.29;75.30;100111.38;5118129;28;20044;-52
2021/05/24 02:32:02;;;;;;;7.25;4.05;;;;;;;7.26;75.40;100114.88;5118285;28;20044;-52
2021/05/24 02:34:28;;;;;;;10.60;4.93;;;;;;;7.25;75.35;100118.38;5118326;28;20051;-51
2021/05/24 02:36:53;;;;;;;5.63;3.78;;;;;;;7.23;75.06;100122.72;5117932;28;20433;-51
2021/05/24 02:39:19;;;;;;;5.80;3.70;;;;;;;7.22;75.29;100133.16;5117953;28;20040;-52
2021/05/24 02:41:45;;;;;;;5.45;4.05;;;;;;;7.19;75.05;100128.81;5118141;28;20051;-52
2021/05/24 02:44:11;;;;;;;5.80;3.83;;;;;;;7.17;75.08;100121.88;5118123;28;20433;-52
2021/05/24 02:46:37;;;;;;;7.63;4.70;;;;;;;7.15;75.28;100121.91;5117790;28;20043;-51
2021/05/24 02:49:03;;;;;;;8.52;4.75;;;;;;;7.13;75.33;100128.00;5118306;28;20069;-53
2021/05/24 02:51:29;;;;;;;8.32;4.78;;;;;;;7.10;75.20;100131.47;5116942;28;20039;-51
2021/05/24 02:53:55;;;;;;;8.23;4.57;;;;;;;7.10;75.02;100134.09;5117881;28;20047;-51
2021/05/24 02:56:20;;;;;;;7.03;3.85;;;;;;;7.08;75.04;100135.81;5117672;28;20050;-52
2021/05/24 02:58:46;;;;;;;8.32;4.40;;;;;;;7.06;75.28;100129.78;5116957;28;20057;-52
2021/05/24 03:01:13;;;;;;;11.70;4.43;;;;;;;7.05;75.25;100132.38;5116571;28;20044;-52
2021/05/24 03:03:40;;;;;;;9.48;4.97;;;;;;;7.02;75.43;100138.50;5117711;28;20112;-52
2021/05/24 03:06:06;;;;;;;6.25;4.00;;;;;;;7.01;75.27;100140.19;5117357;28;20048;-52
2021/05/24 03:08:31;;;;;;;11.15;4.95;;;;;;;7.01;75.42;100142.81;5117629;28;20085;-51
2021/05/24 03:10:58;;;;;;;9.00;4.60;;;;;;;7.02;75.24;100144.56;5116870;28;20044;-51
2021/05/24 03:13:25;;;;;;;9.85;4.65;;;;;;;7.02;75.55;100154.97;5099650;28;20180;-51
2021/05/24 03:15:52;;;;;;;9.07;4.85;;;;;;;7.02;75.53;100157.59;5117205;28;20082;-52
2021/05/24 03:18:18;;;;;;;9.38;4.43;;;;;;;7.02;75.45;100162.78;5117453;28;20047;-52
2021/05/24 03:20:44;;;;;;;10.98;5.05;;;;;;;7.05;75.28;100169.69;5082439;28;20054;-52
2021/05/24 03:23:09;;;;;;;11.43;5.05;;;;;;;7.06;75.64;100167.97;5117389;28;20047;-51
2021/05/24 03:25:35;;;;;;;8.77;5.07;;;;;;;7.08;75.56;100168.81;5116311;28;20051;-52
2021/05/24 03:28:01;;;;;;;7.50;5.00;;;;;;;7.09;75.70;100165.38;5116189;28;20426;-52
2021/05/24 03:30:26;;;;;;;7.47;4.55;;;;;;;7.12;75.99;100167.97;5116914;28;20056;-52
2021/05/24 03:32:52;;;;;;;7.82;4.65;;;;;;;7.13;76.40;100160.13;5116932;28;20048;-51
2021/05/24 03:35:18;;;;;;;10.52;6.00;;;;;;;7.16;76.68;100156.63;5116498;28;20058;-52
2021/05/24 03:37:44;;;;;;;10.25;5.93;;;;;;;7.17;76.44;100161.81;5117152;28;20043;-51
2021/05/24 03:40:10;;;;;;;8.30;5.88;;;;;;;7.21;76.35;100160.97;5116216;28;20505;-52
2021/05/24 03:42:36;;;;;;;12.07;6.63;;;;;;;7.25;76.55;100156.59;5116802;28;20421;-51
2021/05/24 03:45:04;;;;;;;13.45;7.20;;;;;;;7.30;76.96;100157.41;5116945;28;20048;-52
2021/05/24 03:47:30;;;;;;;13.00;7.55;;;;;;;7.33;77.78;100159.13;5116967;28;20047;-51
2021/05/24 03:49:55;;;;;;;10.32;6.63;;;;;;;7.34;79.55;100148.69;5116966;28;20353;-52
2021/05/24 03:52:21;;;;;;;9.63;6.63;;;;;;;7.37;80.44;100147.81;5116872;28;20044;-51
2021/05/24 03:54:47;;;;;;;11.70;8.38;;;;;;;7.44;80.62;100144.28;5116583;28;20116;-52
2021/05/24 03:57:13;;;;;;;11.18;7.28;;;;;;;7.52;81.05;100141.63;5116875;28;20051;-52
2021/05/24 03:59:38;;;;;;;13.70;7.65;;;;;;;7.65;82.31;100136.31;5116181;28;20048;-52
2021/05/24 04:02:04;;;;;;;9.07;6.43;;;;;;;8.03;83.93;100139.47;5116315;28;20441;-51
2021/05/24 04:04:30;;;;;;;11.75;6.30;;;;;;;8.74;84.41;100137.88;5116762;28;20062;-52
2021/05/24 04:06:58;;;;;;;9.68;6.35;;;;;;;9.63;83.33;100135.75;5116516;28;20035;-52
2021/05/24 04:09:25;;;;;;;13.48;7.07;;;;;;;10.44;81.24;100136.97;5115889;28;20097;-51
2021/05/24 04:11:50;;;;;;;18.20;8.70;;;;;;;11.23;78.84;100134.41;5116630;28;20077;-52
2021/05/24 04:14:16;;;;;;;14.15;9.40;;;;;;;12.03;76.92;100136.03;5115646;28;20054;-52
2021/05/24 04:16:42;;;;;;;15.63;10.10;;;;;;;12.79;74.17;100132.19;5116979;28;20039;-52
2021/05/24 04:19:11;;;;;;;13.57;8.98;;;;;;;13.54;72.45;100137.81;5116362;28;20078;-52
2021/05/24 04:21:37;;;;;;;13.25;8.43;;;;;;;14.24;68.72;100132.84;5116365;28;20043;-52
2021/05/24 04:24:04;;;;;;;20.60;9.38;;;;;;;14.92;65.75;100133.94;5119850;27;20035;-52
2021/05/24 04:26:30;;;;;;;17.88;10.00;;;;;;;15.53;65.14;100143.00;5120746;28;20118;-52
2021/05/24 04:28:56;;;;;;;22.50;11.65;;;;;;;15.95;62.19;100150.13;5121029;28;20046;-52
2021/05/24 04:31:22;;;;;;;16.73;8.20;;;;;;;16.01;61.71;100150.72;5119789;28;20044;-52
2021/05/24 04:33:47;;;;;;;12.02;6.93;;;;;;;16.28;60.14;100148.72;5120389;28;20438;-52
2021/05/24 04:36:13;;;;;;;11.80;6.95;;;;;;;16.72;58.83;100148.50;5120594;28;20100;-53
2021/05/24 04:38:39;;;;;;;12.02;6.65;;;;;;;17.26;58.79;100143.44;5120555;28;20044;-53
2021/05/24 04:41:05;;;;;;;9.10;5.93;;;;;;;17.82;56.26;100145.16;5120257;28;20047;-53
2021/05/24 04:43:33;;;;;;;12.65;6.53;;;;;;;18.36;55.65;100153.91;5119462;28;20044;-52
2021/05/24 04:45:59;;;;;;;10.63;6.20;;;;;;;18.82;53.75;100150.66;5120423;28;20075;-52
2021/05/24 04:48:25;;;;;;;8.25;5.25;;;;;;;19.24;53.06;100154.53;5119344;28;20438;-53
2021/05/24 04:50:50;;;;;;;8.80;5.15;;;;;;;19.61;51.28;100151.53;5119395;28;20051;-51
2021/05/24 04:53:16;;;;;;;7.75;4.40;;;;;;;19.74;50.70;100166.81;5119956;27;20074;-53
2021/05/24 04:55:44;;;;;;;6.57;4.95;;;;;;;20.22;49.95;100151.59;5120251;27;20047;-52
2021/05/24 04:58:09;;;;;;;8.15;5.07;;;;;;;20.60;48.37;100161.75;5119853;28;20048;-52
2021/05/24 05:00:35;;;;;;;8.27;5.35;;;;;;;20.90;47.78;100162.53;5119818;28;20071;-53
2021/05/24 05:03:01;;;;;;;7.80;5.22;;;;;;;21.22;47.21;100151.66;5102290;28;20051;-52
2021/05/24 05:05:26;;;;;;;14.52;4.97;;;;;;;21.67;46.24;100161.16;5119179;28;20044;-52
2021/05/24 05:07:52;;;;;;;8.80;5.25;;;;;;;21.96;45.19;100153.06;5120031;28;20075;-53
2021/05/24 05:10:18;;;;;;;7.30;4.50;;;;;;;22.13;43.09;100157.25;5118994;28;20353;-53
2021/05/24 05:12:44;;;;;;;6.88;4.63;;;;;;;22.42;42.83;100159.78;5119664;28;20096;-52
2021/05/24 05:15:10;;;;;;;9.18;4.43;;;;;;;22.79;42.69;100153.63;5119851;28;20047;-52
2021/05/24 05:17:35;;;;;;;8.10;4.50;;;;;;;22.95;42.50;100165.94;5119543;28;20047;-52
2021/05/24 05:20:01;;;;;;;6.97;4.78;;;;;;;23.35;42.53;100169.25;5119771;28;20456;-53
2021/05/24 05:22:27;;;;;;;6.90;4.65;;;;;;;23.56;40.70;100166.81;5119690;28;20097;-53
2021/05/24 05:24:53;;;;;;;7.78;4.38;;;;;;;23.65;41.22;100165.28;5119373;28;20093;-53
2021/05/24 05:27:19;;;;;;;6.65;4.28;;;;;;;23.93;40.24;100169.47;5119356;28;20353;-53
2021/05/24 05:29:45;;;;;;;6.57;4.60;;;;;;;24.17;40.09;100172.97;5119580;28;20079;-53
2021/05/24 05:32:11;;;;;;;6.63;4.18;;;;;;;24.46;40.25;100175.28;5119450;27;20425;-53
2021/05/24 05:34:36;;;;;;;10.35;5.30;;;;;;;24.64;39.75;100178.38;5119177;27;20326;-53
2021/05/24 05:37:02;;;;;;;6.20;4.47;;;;;;;24.88;38.71;100173.75;5119436;28;20067;-53
2021/05/24 05:39:28;;;;;;;6.13;3.42;;;;;;;24.91;38.11;100180.69;5119412;28;20120;-53
2021/05/24 05:41:53;;;;;;;5.82;2.13;;;;;;;24.89;38.17;100171.91;5119233;28;20092;-53
2021/05/24 05:44:19;;;;;;;4.70;2.35;;;;;;;25.09;37.43;100167.66;5119295;28;20059;-54
2021/05/24 05:46:45;;;;;;;4.45;2.88;;;;;;;25.37;37.53;100164.47;5118248;28;20055;-54
2021/05/24 05:49:11;;;;;;;4.53;2.53;;;;;;;25.59;37.14;100177.00;5117893;28;20040;-54
2021/05/24 05:51:36;;;;;;;2.92;1.92;;;;;;;25.90;36.63;100176.31;5118996;28;20077;-54
2021/05/24 05:54:02;;;;;;;2.80;1.80;;;;;;;26.01;35.55;100182.50;5118801;27;20052;-54
2021/05/24 05:56:28;;;;;;;3.20;2.15;;;;;;;26.22;35.70;100178.97;5117857;28;20065;-54
2021/05/24 05:58:54;;;;;;;3.20;2.10;;;;;;;26.48;35.21;100188.38;5118730;28;20067;-54
2021/05/24 06:01:21;;;;;;;5.82;2.30;;;;;;;26.57;34.67;100189.44;5118659;28;20164;-54
2021/05/24 06:03:47;;;;;;;3.17;2.10;;;;;;;26.69;34.62;100188.38;5119221;28;20058;-54
2021/05/24 06:06:13;;;;;;;8.20;2.90;;;;;;;26.62;34.08;100189.91;5118256;28;20051;-54
2021/05/24 06:08:39;;;;;;;6.32;2.58;;;;;;;26.60;33.98;100191.00;5118581;28;20031;-54
2021/05/24 06:11:05;;;;;;;4.63;2.58;;;;;;;26.74;33.78;100190.66;5118448;28;20043;-54
2021/05/24 06:13:32;;;;;;;6.18;2.10;;;;;;;26.70;33.29;100200.81;5118392;28;20441;-54
2021/05/24 06:15:57;;;;;;;4.50;2.15;;;;;;;26.63;33.51;100212.25;5118692;28;20047;-54
2021/05/24 06:18:23;;;;;;;4.35;1.90;;;;;;;26.63;33.92;100188.91;5118331;28;20048;-53
2021/05/24 06:20:49;;;;;;;6.55;1.92;;;;;;;26.83;33.93;100206.00;5116836;28;20044;-53
2021/05/24 06:23:15;;;;;;;5.55;1.67;;;;;;;27.04;33.86;100208.66;5116306;28;20039;-53
2021/05/24 06:25:44;;;;;;;7.20;2.00;;;;;;;27.12;33.81;100205.28;5116385;27;20142;-53
2021/05/24 06:28:11;;;;;;;2.17;1.05;;;;;;;27.10;31.36;100207.25;5116846;28;20047;-54
2021/05/24 06:30:36;;;;;;;1.35;0.82;;;;;;;27.01;32.20;100220.50;5116245;28;20516;-53
2021/05/24 06:33:02;;;;;;;2.17;1.38;;;;;;;26.86;31.82;100219.16;5116245;28;20113;-53
2021/05/24 06:35:28;;;;;;;2.55;1.50;;;;;;;26.97;31.58;100215.53;5116857;28;20063;-54
2021/05/24 06:37:54;;;;;;;2.00;0.80;;;;;;;26.85;31.28;100208.56;5117271;28;20349;-53
2021/05/24 06:40:20;;;;;;;1.25;0.85;;;;;;;26.78;31.73;100213.63;5117328;28;20108;-54
2021/05/24 06:42:46;;;;;;;0.98;0.68;;;;;;;26.84;31.57;100217.59;5118636;28;20112;-53
2021/05/24 06:45:12;;;;;;;1.45;0.90;;;;;;;26.99;32.48;100209.03;5100251;28;20054;-53
2021/05/24 06:47:38;;;;;;;1.45;1.00;;;;;;;27.21;30.56;100213.41;5116129;28;20115;-53
2021/05/24 06:50:05;;;;;;;3.13;1.45;;;;;;;27.18;30.62;100208.31;5118340;28;20036;-53
2021/05/24 06:52:30;;;;;;;2.30;1.20;;;;;;;27.13;30.48;100204.28;5117901;28;20055;-53
2021/05/24 06:54:56;;;;;;;1.50;0.77;;;;;;;27.10;30.39;100194.66;5116997;28;20043;-54
2021/05/24 06:57:22;;;;;;;1.15;0.52;;;;;;;26.92;29.93;100199.81;5117858;28;20060;-53
2021/05/24 06:59:48;;;;;;;1.27;0.60;;;;;;;26.69;30.23;100206.34;5117825;27;20108;-54
2021/05/24 07:02:16;;;;;;;1.77;0.65;;;;;;;26.64;30.13;100208.56;5117807;28;20358;-54
2021/05/24 07:04:44;;;;;;;0.75;0.25;;;;;;;26.53;30.88;100206.81;5117722;28;20075;-54
2021/05/24 07:07:09;;;;;;;0.80;0.20;;;;;;;26.35;30.87;100201.13;5117705;28;20052;-54
2021/05/24 07:09:35;;;;;;;1.25;0.45;;;;;;;25.90;30.79;100222.78;5117273;28;20089;-54
2021/05/24 07:12:01;;;;;;;4.55;0.68;;;;;;;25.43;31.54;100216.75;5117287;27;20039;-54
2021/05/24 07:14:27;;;;;;;3.42;0.50;;;;;;;24.98;32.14;100213.22;5116686;28;20048;-54
2021/05/24 07:16:54;;;;;;;1.05;0.40;;;;;;;24.68;33.17;100218.16;5117448;28;20132;-54
2021/05/24 07:19:20;;;;;;;1.88;0.57;;;;;;;24.59;33.88;100209.97;5117521;28;20052;-54
2021/05/24 07:21:46;;;;;;;1.08;0.30;;;;;;;24.64;34.26;100207.81;5117434;28;20051;-53
2021/05/24 07:24:11;;;;;;;1.50;0.50;;;;;;;24.61;34.68;100208.06;5117117;28;20048;-53
2021/05/24 07:26:37;;;;;;;1.00;0.30;;;;;;;24.64;34.51;100200.63;5116733;28;20048;-53
2021/05/24 07:29:03;;;;;;;5.97;0.90;;;;;;;24.61;34.54;100213.41;5117373;28;20047;-53
2021/05/24 07:31:29;;;;;;;4.90;1.05;;;;;;;24.42;33.85;100200.59;5116945;28;20495;-53
2021/05/24 07:33:55;;;;;;;2.80;0.47;;;;;;;24.25;34.68;100191.97;5099551;28;20055;-53
2021/05/24 07:36:21;;;;;;;3.80;1.15;;;;;;;24.21;34.00;100211.94;5115866;28;20475;-53
2021/05/24 07:38:46;;;;;;;1.95;0.90;;;;;;;24.06;34.40;100194.34;5116793;27;20058;-53
2021/05/24 07:41:12;;;;;;;2.10;1.38;;;;;;;23.95;35.48;100197.84;5117103;28;20044;-53
2021/05/24 07:43:38;;;;;;;3.33;1.48;;;;;;;24.02;35.84;100196.41;5115328;28;20048;-53
2021/05/24 07:46:04;;;;;;;2.08;1.20;;;;;;;24.05;34.85;100205.13;5114835;28;20559;-54
2021/05/24 07:48:30;;;;;;;2.80;0.88;;;;;;;24.05;35.01;100194.44;5114774;28;20066;-53
2021/05/24 07:50:56;;;;;;;3.92;1.00;;;;;;;23.97;35.31;100203.91;5114910;28;20043;-54
2021/05/24 07:53:21;;;;;;;10.27;4.00;;;;;;;23.98;35.28;100188.69;5114953;28;20044;-53
2021/05/24 07:55:47;;;;;;;8.07;4.75;;;;;;;23.95;35.62;100183.56;5114051;28;20067;-53
2021/05/24 07:58:13;;;;;;;5.72;2.90;;;;;;;24.09;35.99;100188.75;5115400;28;20455;-53
2021/05/24 08:00:38;;;;;;;4.43;2.15;;;;;;;24.14;35.52;100191.06;5115966;28;20062;-53
2021/05/24 08:03:04;;;;;;;2.63;1.60;;;;;;;24.25;35.95;100180.44;5116490;28;20051;-53
2021/05/24 08:05:30;;;;;;;1.85;0.70;;;;;;;24.32;35.48;100187.00;5116794;28;20044;-54
2021/05/24 08:07:56;;;;;;;3.30;0.98;;;;;;;24.42;34.86;100193.41;5116427;28;20043;-53
2021/05/24 08:10:22;;;;;;;1.63;0.68;;;;;;;24.34;34.42;100195.78;5116410;28;20140;-53
2021/05/24 08:12:48;;;;;;;1.30;0.57;;;;;;;24.26;33.88;100184.81;5116436;28;20074;-54
2021/05/24 08:15:18;;;;;;;2.80;1.15;;;;;;;24.24;33.42;100179.59;5116591;28;20052;-54
2021/05/24 08:17:44;;;;;;;4.15;1.60;;;;;;;24.07;33.72;100173.78;5115868;28;20054;-54
2021/05/24 08:20:11;;;;;;;6.57;2.28;;;;;;;23.85;34.46;100166.50;5116642;28;20066;-54
2021/05/24 08:22:37;;;;;;;7.95;2.72;;;;;;;23.75;34.65;100175.22;5116591;28;20039;-54
2021/05/24 08:25:04;;;;;;;3.47;0.60;;;;;;;23.40;35.13;100167.09;5116263;28;20062;-53
2021/05/24 08:27:30;;;;;;;1.15;0.65;;;;;;;23.26;34.97;100162.75;5115517;28;20105;-53
2021/05/24 08:29:56;;;;;;;4.18;0.50;;;;;;;23.17;35.79;100171.44;5116545;28;20354;-53
2021/05/24 08:32:21;;;;;;;1.75;0.80;;;;;;;23.00;36.23;100166.44;5116404;28;20421;-53
2021/05/24 08:34:47;;;;;;;6.90;1.83;;;;;;;22.93;37.43;100165.13;5116520;28;20331;-53
2021/05/24 08:37:13;;;;;;;8.02;2.13;;;;;;;22.95;37.65;100150.75;5116476;28;20448;-53
2021/05/24 08:39:39;;;;;;;3.50;2.00;;;;;;;23.13;36.55;100151.22;5115597;28;20039;-53
2021/05/24 08:42:06;;;;;;;2.20;1.10;;;;;;;23.06;35.90;100147.31;5116394;28;20081;-53
2021/05/24 08:44:33;;;;;;;2.65;0.65;;;;;;;22.89;35.77;100142.28;5098955;28;20054;-53
2021/05/24 08:47:01;;;;;;;1.33;0.65;;;;;;;22.61;36.53;100122.84;5116402;28;20334;-53
2021/05/24 08:49:26;;;;;;;8.68;3.33;;;;;;;22.61;36.78;100131.72;5116318;28;20047;-53
2021/05/24 08:51:52;;;;;;;6.22;1.58;;;;;;;22.48;37.14;100132.69;5116245;28;20044;-53
2021/05/24 08:54:18;;;;;;;1.05;0.50;;;;;;;22.39;36.99;100142.16;5116321;28;20062;-53
2021/05/24 08:56:44;;;;;;;4.53;1.30;;;;;;;22.30;37.24;100134.81;5098294;28;20452;-53
2021/05/24 08:59:09;;;;;;;1.27;0.50;;;;;;;22.34;37.59;100142.50;5116497;28;20059;-53
2021/05/24 09:01:35;;;;;;;1.70;1.00;;;;;;;22.33;37.35;100142.63;5116005;28;20044;-53
2021/05/24 09:04:05;;;;;;;2.63;1.30;;;;;;;22.35;36.64;100148.69;5115695;28;20169;-53
2021/05/24 09:06:37;;;;;;;3.28;1.10;;;;;;;22.27;36.82;100156.38;5116220;28;20127;-53
2021/05/24 09:09:14;;;;;;;3.38;1.80;;;;;;;22.12;37.10;100153.75;5116068;28;20423;-53
2021/05/24 09:11:39;;;;;;;3.90;1.38;;;;;;;21.97;37.78;100146.78;5120194;27;20068;-53
2021/05/24 09:14:19;;;;;;;1.40;0.50;;;;;;;22.02;38.40;100142.00;5119658;27;20434;-53
2021/05/24 09:16:55;;;;;;;2.13;0.90;;;;;;;21.97;38.25;100152.13;5118968;28;20100;-53
2021/05/24 09:19:22;;;;;;;1.63;0.80;;;;;;;21.88;38.65;100147.41;5119347;28;20042;-53
2021/05/24 09:21:48;;;;;;;1.70;0.50;;;;;;;21.85;38.32;100147.59;5119743;28;20142;-53
2021/05/24 09:24:26;;;;;;;4.07;0.52;;;;;;;21.87;38.84;100149.22;5119513;28;20460;-54
2021/05/24 09:26:53;;;;;;;2.92;0.60;;;;;;;21.96;38.48;100147.72;5119779;28;20046;-53
2021/05/24 09:29:22;;;;;;;0.98;0.43;;;;;;;21.90;38.13;100142.81;5119611;28;20048;-53
2021/05/24 09:32:07;;;;;;;1.30;0.57;;;;;;;21.89;37.93;100144.63;5119166;28;20050;-53
2021/05/24 09:34:33;;;;;;;2.50;0.90;;;;;;;21.78;38.49;100141.81;5104156;28;20404;-53
2021/05/24 09:36:59;;;;;;;2.35;0.90;;;;;;;21.82;38.65;100143.31;5101365;28;20058;-53
2021/05/24 09:39:30;;;;;;;1.55;0.77;;;;;;;21.97;38.51;100137.91;5119448;28;20169;-53
2021/05/24 09:42:00;;;;;;;2.47;1.20;;;;;;;22.04;38.38;100126.75;5119122;28;20357;-53
2021/05/24 09:44:27;;;;;;;2.95;1.80;;;;;;;22.22;36.99;100119.31;5118475;28;20373;-53
2021/05/24 09:46:53;;;;;;;2.85;0.68;;;;;;;22.24;37.32;100111.25;5119312;28;20107;-53
2021/05/24 09:49:22;;;;;;;2.65;0.57;;;;;;;22.29;36.80;100112.59;5118957;28;20449;-53
2021/05/24 09:51:48;;;;;;;3.38;0.47;;;;;;;22.17;36.18;100094.81;5118870;28;20050;-53
2021/05/24 09:54:14;;;;;;;3.88;0.60;;;;;;;22.21;36.32;100108.78;5101310;28;20412;-53
2021/05/24 09:56:45;;;;;;;7.75;0.77;;;;;;;22.39;36.25;100104.81;5119285;27;20361;-53
2021/05/24 09:59:15;;;;;;;0.90;0.30;;;;;;;22.45;36.40;100108.88;5118508;28;20074;-53
2021/05/24 10:01:50;;;;;;;2.90;0.55;;;;;;;22.43;35.75;100109.00;5118720;27;20462;-53
2021/05/24 10:04:18;;;;;;;2.38;1.30;;;;;;;22.32;36.44;100114.22;5117819;28;20047;-53
2021/05/24 10:06:44;;;;;;;1.95;1.13;;;;;;;22.33;36.90;100105.28;5118592;27;20054;-54
2021/05/24 10:09:11;;;;;;;0.60;0.30;;;;;;;22.31;36.86;100105.34;5118647;28;20039;-53
2021/05/24 10:11:38;;;;;;;1.67;0.80;;;;;;;22.38;36.71;100103.97;5118185;28;20150;-54
2021/05/24 10:14:04;;;;;;;1.65;0.40;;;;;;;22.49;36.21;100097.91;5118711;28;20134;-53
2021/05/24 10:16:37;;;;;;;2.13;0.68;;;;;;;22.42;36.21;100099.28;5117645;28;20502;-53
2021/05/24 10:19:03;;;;;;;1.40;0.70;;;;;;;22.45;35.20;100093.72;5117903;28;20051;-53
2021/05/24 10:21:30;;;;;;;4.97;2.00;;;;;;;22.42;34.36;100075.25;5117650;28;20097;-53
2021/05/24 10:23:56;;;;;;;6.45;2.15;;;;;;;22.34;35.26;100070.47;5118102;28;20051;-51
2021/05/24 10:26:22;;;;;;;2.53;0.57;;;;;;;22.36;35.02;100062.38;5119040;28;20050;-53
2021/05/24 10:28:48;;;;;;;1.48;0.40;;;;;;;22.30;35.75;100054.78;5117535;28;20047;-53
2021/05/24 10:31:22;;;;;;;1.10;0.30;;;;;;;22.36;35.36;100049.03;5117199;28;20054;-53
2021/05/24 10:33:49;;;;;;;2.08;0.50;;;;;;;22.45;33.90;100053.69;5100753;28;20126;-53
2021/05/24 10:36:22;;;;;;;1.05;0.35;;;;;;;22.45;33.95;100051.03;5100550;28;20084;-53
2021/05/24 10:39:04;;;;;;;1.83;0.75;;;;;;;22.46;33.19;100052.75;5117964;28;20047;-53
2021/05/24 10:41:43;;;;;;;8.38;1.83;;;;;;;22.42;34.65;100066.41;5117401;28;20047;-53
2021/05/24 10:44:10;;;;;;;3.60;1.65;;;;;;;22.49;34.59;100049.00;5118164;28;20054;-53
2021/05/24 10:46:36;;;;;;;4.25;1.90;;;;;;;22.50;36.03;100053.38;5118143;28;20044;-53
2021/05/24 10:49:06;;;;;;;1.98;1.00;;;;;;;22.49;36.91;100051.66;5118034;28;20121;-53
2021/05/24 10:51:47;;;;;;;3.83;0.98;;;;;;;22.43;37.42;100047.63;5116700;28;20059;-53
2021/05/24 10:54:14;;;;;;;2.65;1.23;;;;;;;22.42;37.16;100037.06;5116809;28;20062;-53
2021/05/24 10:56:43;;;;;;;2.65;0.70;;;;;;;22.45;36.69;100051.03;5116684;28;20047;-53
2021/05/24 10:59:39;;;;;;;2.00;0.60;;;;;;;22.36;37.10;100043.69;5117633;28;20104;-53
2021/05/24 11:02:09;;;;;;;2.17;0.85;;;;;;;22.42;38.10;100042.38;5117531;28;20059;-53
2021/05/24 11:04:55;;;;;;;7.80;0.77;;;;;;;22.51;36.33;100039.06;5116902;28;20457;-53
2021/05/24 11:07:32;;;;;;;3.42;0.52;;;;;;;22.48;35.14;100033.94;5099929;28;20040;-53
2021/05/24 11:10:13;;;;;;;3.08;0.77;;;;;;;22.39;35.90;100035.44;5117411;28;20043;-53
2021/05/24 11:12:39;;;;;;;1.40;0.77;;;;;;;22.47;36.28;100025.09;5116691;28;20043;-53
2021/05/24 11:15:17;;;;;;;1.23;0.65;;;;;;;22.51;36.13;100031.06;5117576;28;20063;-53
2021/05/24 11:18:01;;;;;;;3.00;0.73;;;;;;;22.46;36.64;100025.22;5117431;28;20475;-53
2021/05/24 11:20:40;;;;;;;2.58;0.73;;;;;;;22.62;36.66;100028.50;5117516;28;20112;-53
2021/05/24 11:23:34;;;;;;;4.80;0.90;;;;;;;22.70;36.56;100031.47;5117163;28;20043;-53
2021/05/24 11:26:13;;;;;;;3.22;0.50;;;;;;;22.79;36.13;100013.94;5116017;28;20082;-53